Time;durP1;ratioP1;P1;durP2;ratioP2;P2;SDS_P1;SDS_P2;PMS_P1;PMS_P2;Temp;Humidity;BMP_temperature;BMP_pressure;BME280_temperature;BME280_humidity;BME280_pressure;Samples;Min_cycle;Max_cycle;Signal;HPM_P1;HPM_P2
2021/05/28 00:00:57;;;;;;;2.97;1.85;;;9.50;77.50;;;;;;5095126;28;20028;-78
2021/05/28 00:03:22;;;;;;;4.07;1.70;;;9.40;77.80;;;;;;5095156;28;20045;-78
2021/05/28 00:05:48;;;;;;;6.03;1.88;;;9.40;78.20;;;;;;5093870;28;20032;-77
2021/05/28 00:08:13;;;;;;;4.63;1.55;;;9.40;78.30;;;;;;5095162;28;20159;-77
2021/05/28 00:10:39;;;;;;;3.38;1.40;;;9.40;78.40;;;;;;5095039;28;20020;-78
2021/05/28 00:13:04;;;;;;;2.17;1.38;;;9.40;78.40;;;;;;5095026;28;20031;-78
2021/05/28 00:15:30;;;;;;;4.47;1.85;;;9.50;78.40;;;;;;5093610;28;20028;-78
2021/05/28 00:17:55;;;;;;;3.40;1.73;;;9.50;78.10;;;;;;5094828;28;20024;-78
2021/05/28 00:20:21;;;;;;;2.47;1.48;;;9.50;78.10;;;;;;5093551;28;20519;-78
2021/05/28 00:22:46;;;;;;;2.20;1.67;;;9.40;78.00;;;;;;5094740;28;20028;-78
2021/05/28 00:25:12;;;;;;;7.97;2.03;;;9.50;78.00;;;;;;5094822;28;20052;-78
2021/05/28 00:27:39;;;;;;;2.10;1.48;;;9.40;78.00;;;;;;5094635;28;20043;-77
2021/05/28 00:30:06;;;;;;;6.05;1.77;;;9.40;78.00;;;;;;5094319;28;20032;-78
2021/05/28 00:32:31;;;;;;;3.20;2.10;;;9.30;78.20;;;;;;5094646;28;20028;-77
2021/05/28 00:34:57;;;;;;;5.40;1.90;;;9.30;78.40;;;;;;5094570;28;20016;-77
2021/05/28 00:37:23;;;;;;;3.60;1.40;;;9.30;78.50;;;;;;5094606;28;20020;-77
2021/05/28 00:39:49;;;;;;;4.15;1.65;;;9.30;78.60;;;;;;5094469;28;20020;-77
2021/05/28 00:42:14;;;;;;;3.25;1.95;;;9.30;78.70;;;;;;5094319;28;20050;-77
2021/05/28 00:44:41;;;;;;;8.35;2.38;;;9.30;78.70;;;;;;5094338;28;20048;-78
2021/05/28 00:47:07;;;;;;;1.88;1.33;;;9.20;78.30;;;;;;5094202;28;20044;-78
2021/05/28 00:49:34;;;;;;;3.58;1.55;;;9.20;78.40;;;;;;5094365;28;20023;-78
2021/05/28 00:52:00;;;;;;;3.83;1.60;;;9.10;78.80;;;;;;5094341;28;20024;-78
2021/05/28 00:54:26;;;;;;;3.40;2.05;;;9.00;79.00;;;;;;5094156;28;20049;-78
2021/05/28 00:56:52;;;;;;;2.22;1.60;;;9.00;79.00;;;;;;5094223;28;20028;-78
2021/05/28 00:59:18;;;;;;;3.53;1.77;;;8.90;79.50;;;;;;5094191;28;20024;-78
2021/05/28 01:01:45;;;;;;;2.05;1.67;;;8.80;79.70;;;;;;5094003;28;20118;-78
2021/05/28 01:04:11;;;;;;;1.70;1.30;;;8.80;79.90;;;;;;5094093;28;20377;-78
2021/05/28 01:06:37;;;;;;;2.42;1.70;;;8.80;80.00;;;;;;5094030;28;20031;-78
2021/05/28 01:09:04;;;;;;;4.15;1.88;;;8.90;79.80;;;;;;5093943;28;20027;-78
2021/05/28 01:11:29;;;;;;;1.65;1.42;;;8.80;79.60;;;;;;5093819;28;20032;-78
2021/05/28 01:13:55;;;;;;;3.42;1.83;;;8.80;79.70;;;;;;5093836;28;20396;-78
2021/05/28 01:16:21;;;;;;;3.70;2.13;;;8.70;79.70;;;;;;5093963;28;20116;-78
2021/05/28 01:18:46;;;;;;;3.58;1.60;;;8.70;80.70;;;;;;5093696;28;20073;-78
2021/05/28 01:21:12;;;;;;;4.68;1.67;;;8.60;80.20;;;;;;5093621;28;20053;-78
2021/05/28 01:23:38;;;;;;;3.75;1.98;;;8.50;80.70;;;;;;5093584;28;20027;-79
2021/05/28 01:26:04;;;;;;;2.67;1.58;;;8.40;81.00;;;;;;5093697;28;20047;-78
2021/05/28 01:28:30;;;;;;;2.72;1.88;;;8.40;81.00;;;;;;5093628;28;20031;-78
2021/05/28 01:30:58;;;;;;;4.20;1.40;;;8.40;81.10;;;;;;5093592;28;20028;-78
2021/05/28 01:33:24;;;;;;;4.57;1.85;;;8.40;81.10;;;;;;5093683;28;20028;-78
2021/05/28 01:35:50;;;;;;;5.78;2.15;;;8.40;81.00;;;;;;5093605;28;20024;-78
2021/05/28 01:38:15;;;;;;;2.00;1.60;;;8.40;81.00;;;;;;5093420;28;20031;-78
2021/05/28 01:40:41;;;;;;;2.70;2.03;;;8.30;81.10;;;;;;5093312;28;20115;-78
2021/05/28 01:43:07;;;;;;;2.60;1.63;;;8.30;81.40;;;;;;5092465;28;20032;-78
2021/05/28 01:45:32;;;;;;;4.22;1.70;;;8.30;81.30;;;;;;5093568;28;20020;-78
2021/05/28 01:47:58;;;;;;;3.80;1.90;;;8.30;82.10;;;;;;5093127;28;20052;-78
2021/05/28 01:50:23;;;;;;;3.35;1.40;;;8.30;81.50;;;;;;5093323;28;20107;-78
2021/05/28 01:52:49;;;;;;;5.93;1.98;;;8.20;81.60;;;;;;5093305;28;20056;-78
2021/05/28 01:55:15;;;;;;;2.35;1.60;;;8.10;81.80;;;;;;5091998;28;20058;-78
2021/05/28 01:57:42;;;;;;;2.85;1.65;;;8.10;81.90;;;;;;5093258;28;20473;-78
2021/05/28 02:00:17;;;;;;;2.65;1.80;;;8.20;82.00;;;;;;5093300;28;20028;-78
2021/05/28 02:02:42;;;;;;;3.97;1.83;;;8.10;81.90;;;;;;5093260;28;20040;-78
2021/05/28 02:05:09;;;;;;;4.05;1.67;;;8.10;81.90;;;;;;5093277;28;20111;-79
2021/05/28 02:07:36;;;;;;;4.60;1.63;;;8.10;81.90;;;;;;5093121;28;20032;-78
2021/05/28 02:10:02;;;;;;;5.13;1.83;;;8.10;82.00;;;;;;5092850;28;20020;-77
2021/05/28 02:12:28;;;;;;;2.92;2.05;;;8.00;82.00;;;;;;5093140;28;20031;-78
2021/05/28 02:14:57;;;;;;;5.28;2.42;;;8.00;82.10;;;;;;5093141;28;20473;-78
2021/05/28 02:17:23;;;;;;;7.97;2.33;;;8.00;82.00;;;;;;5092994;28;20093;-78
2021/05/28 02:19:49;;;;;;;6.35;2.15;;;8.00;82.10;;;;;;5092970;28;20074;-78
2021/05/28 02:22:15;;;;;;;3.60;2.30;;;8.00;82.10;;;;;;5091698;28;20048;-77
2021/05/28 02:24:40;;;;;;;2.97;2.08;;;8.00;82.20;;;;;;5093554;28;20100;-77
2021/05/28 02:27:06;;;;;;;5.50;2.35;;;7.90;82.20;;;;;;5093931;28;20020;-78
2021/05/28 02:29:32;;;;;;;4.05;2.53;;;7.90;82.30;;;;;;5095607;28;20020;-78
2021/05/28 02:31:57;;;;;;;4.03;2.10;;;7.90;82.40;;;;;;5097569;28;20024;-78
2021/05/28 02:34:23;;;;;;;5.38;1.98;;;8.00;82.50;;;;;;5094203;28;20500;-78
2021/05/28 02:36:48;;;;;;;3.60;2.15;;;7.90;82.30;;;;;;5100118;28;20028;-78
2021/05/28 02:39:14;;;;;;;3.97;2.45;;;8.00;82.20;;;;;;5096462;28;20105;-78
2021/05/28 02:41:40;;;;;;;8.98;2.22;;;7.90;82.20;;;;;;5094159;28;20028;-78
2021/05/28 02:44:05;;;;;;;5.85;1.75;;;7.80;82.20;;;;;;5096318;28;20492;-78
2021/05/28 02:46:33;;;;;;;5.30;2.13;;;7.80;82.20;;;;;;5093630;28;20116;-78
2021/05/28 02:48:59;;;;;;;3.13;1.88;;;7.80;82.20;;;;;;5093658;28;20026;-78
2021/05/28 02:51:25;;;;;;;7.82;2.10;;;7.80;82.30;;;;;;5093159;28;20054;-77
2021/05/28 02:53:51;;;;;;;6.25;2.55;;;7.70;82.40;;;;;;5094769;28;20051;-78
2021/05/28 02:56:16;;;;;;;5.38;2.22;;;7.70;82.60;;;;;;5096696;28;20103;-77
2021/05/28 02:58:42;;;;;;;3.63;2.10;;;7.60;82.70;;;;;;5096398;28;20511;-78
2021/05/28 03:01:08;;;;;;;3.17;2.20;;;7.70;82.80;;;;;;5095141;28;20028;-77
2021/05/28 03:03:33;;;;;;;3.30;1.90;;;7.70;82.80;;;;;;5096325;28;20027;-77
2021/05/28 03:05:59;;;;;;;4.10;2.00;;;7.70;82.60;;;;;;5096396;28;20032;-77
2021/05/28 03:08:26;;;;;;;4.88;2.72;;;7.80;82.40;;;;;;5096135;28;20036;-77
2021/05/28 03:10:52;;;;;;;2.92;2.03;;;7.80;82.10;;;;;;5096123;28;20032;-77
2021/05/28 03:13:18;;;;;;;5.07;2.20;;;7.90;82.00;;;;;;5096298;28;20158;-77
2021/05/28 03:15:43;;;;;;;5.40;2.08;;;7.90;82.00;;;;;;5095995;28;20149;-77
2021/05/28 03:18:14;;;;;;;5.28;2.78;;;7.90;81.40;;;;;;5096194;28;20376;-77
2021/05/28 03:20:41;;;;;;;4.07;2.20;;;8.00;81.20;;;;;;5095729;28;20394;-77
2021/05/28 03:23:07;;;;;;;3.28;2.10;;;7.90;81.10;;;;;;5096016;28;20469;-77
2021/05/28 03:25:33;;;;;;;4.60;1.70;;;7.90;81.00;;;;;;5096092;28;20024;-78
2021/05/28 03:27:59;;;;;;;2.83;1.67;;;7.90;80.90;;;;;;5095911;28;20034;-79
2021/05/28 03:30:25;;;;;;;4.32;1.75;;;7.80;80.70;;;;;;5095855;28;20127;-78
2021/05/28 03:32:50;;;;;;;7.53;1.98;;;7.80;80.80;;;;;;5095817;28;20024;-78
2021/05/28 03:35:16;;;;;;;4.57;2.10;;;7.80;80.90;;;;;;5095954;28;20073;-78
2021/05/28 03:37:42;;;;;;;6.28;2.25;;;7.70;80.80;;;;;;5095691;28;20102;-78
2021/05/28 03:40:09;;;;;;;5.97;2.60;;;7.70;80.40;;;;;;5095593;28;20432;-78
2021/05/28 03:42:35;;;;;;;4.10;2.50;;;7.40;80.80;;;;;;5095490;28;20028;-78
2021/05/28 03:45:01;;;;;;;4.18;2.20;;;7.30;82.60;;;;;;5095443;28;20021;-78
2021/05/28 03:47:26;;;;;;;4.78;2.55;;;7.30;82.30;;;;;;5095292;28;20127;-78
2021/05/28 03:49:52;;;;;;;3.67;2.40;;;7.30;82.30;;;;;;5095389;28;20080;-78
2021/05/28 03:52:18;;;;;;;4.20;2.47;;;7.40;82.00;;;;;;5095432;28;20056;-79
2021/05/28 03:54:43;;;;;;;2.88;2.10;;;7.40;81.80;;;;;;5094103;28;20021;-83
2021/05/28 03:57:09;;;;;;;2.72;1.95;;;7.50;81.70;;;;;;5095266;28;20024;-82
2021/05/28 03:59:35;;;;;;;2.60;1.63;;;7.50;81.30;;;;;;5095018;28;20376;-78
2021/05/28 04:02:02;;;;;;;2.88;1.95;;;7.60;81.00;;;;;;5094888;28;20111;-78
2021/05/28 04:04:27;;;;;;;4.32;1.83;;;7.60;80.80;;;;;;5094431;28;20020;-79
2021/05/28 04:06:53;;;;;;;2.53;2.05;;;7.60;80.70;;;;;;5094760;28;20024;-79
2021/05/28 04:09:18;;;;;;;2.50;1.90;;;7.60;80.60;;;;;;5094860;28;20091;-79
2021/05/28 04:11:44;;;;;;;3.78;2.10;;;7.60;80.50;;;;;;5099294;28;20043;-78
2021/05/28 04:14:09;;;;;;;3.63;2.25;;;7.70;80.60;;;;;;5093656;28;20024;-78
2021/05/28 04:16:35;;;;;;;3.08;2.15;;;7.70;80.40;;;;;;5094789;28;20027;-77
2021/05/28 04:19:01;;;;;;;2.92;2.08;;;7.80;80.20;;;;;;5094786;28;20093;-77
2021/05/28 04:21:26;;;;;;;4.53;2.50;;;7.90;80.10;;;;;;5094646;28;20115;-77
2021/05/28 04:23:52;;;;;;;4.45;2.47;;;7.90;79.60;;;;;;5094701;28;20032;-79
2021/05/28 04:26:17;;;;;;;2.13;1.88;;;7.90;79.10;;;;;;5094589;28;20027;-79
2021/05/28 04:28:43;;;;;;;4.60;2.90;;;7.90;79.40;;;;;;5097230;28;20529;-79
2021/05/28 04:31:08;;;;;;;7.60;2.47;;;8.00;79.30;;;;;;5096463;28;20024;-79
2021/05/28 04:33:34;;;;;;;6.07;2.47;;;7.90;79.10;;;;;;5094792;28;20156;-79
2021/05/28 04:36:00;;;;;;;5.90;2.30;;;8.00;79.10;;;;;;5093183;28;20502;-79
2021/05/28 04:38:25;;;;;;;7.75;2.40;;;8.00;79.20;;;;;;5094469;28;20035;-78
2021/05/28 04:40:53;;;;;;;6.80;2.55;;;8.10;79.10;;;;;;5094346;28;20081;-79
2021/05/28 04:43:19;;;;;;;5.72;2.10;;;8.10;78.70;;;;;;5094569;28;20028;-78
2021/05/28 04:45:45;;;;;;;4.43;2.13;;;8.10;78.60;;;;;;5094037;28;20119;-78
2021/05/28 04:48:10;;;;;;;4.82;1.98;;;8.30;78.50;;;;;;5094373;28;20509;-79
2021/05/28 04:50:37;;;;;;;2.92;1.95;;;8.30;78.30;;;;;;5094617;28;20469;-79
2021/05/28 04:53:05;;;;;;;4.97;2.10;;;8.40;78.20;;;;;;5094424;28;20020;-79
2021/05/28 04:55:31;;;;;;;5.65;2.45;;;8.50;78.10;;;;;;5094208;28;20031;-79
2021/05/28 04:57:57;;;;;;;4.05;2.30;;;8.60;77.70;;;;;;5094217;28;20380;-79
2021/05/28 05:00:24;;;;;;;3.95;2.28;;;8.70;77.30;;;;;;5093995;28;20130;-79
2021/05/28 05:02:50;;;;;;;2.97;2.08;;;8.80;77.00;;;;;;5094040;28;20024;-80
2021/05/28 05:05:16;;;;;;;5.25;2.20;;;8.90;76.90;;;;;;5094086;28;20092;-79
2021/05/28 05:07:42;;;;;;;8.73;2.40;;;9.00;76.60;;;;;;5093913;28;20043;-79
2021/05/28 05:10:09;;;;;;;5.13;2.47;;;9.10;76.40;;;;;;5094006;28;20024;-79
2021/05/28 05:12:34;;;;;;;2.35;1.75;;;9.00;76.00;;;;;;5093703;28;20028;-80
2021/05/28 05:15:00;;;;;;;2.45;1.50;;;9.10;76.20;;;;;;5093630;28;20031;-80
2021/05/28 05:17:25;;;;;;;2.72;1.42;;;9.20;76.20;;;;;;5092879;28;20024;-80
2021/05/28 05:19:51;;;;;;;2.55;1.80;;;9.30;76.20;;;;;;5093738;28;20040;-80
2021/05/28 05:22:16;;;;;;;5.07;1.95;;;9.40;76.00;;;;;;5093885;28;20062;-79
2021/05/28 05:24:42;;;;;;;3.53;1.52;;;9.50;75.80;;;;;;5093473;28;20028;-80
2021/05/28 05:27:08;;;;;;;5.65;1.70;;;9.60;75.40;;;;;;5093502;28;20020;-79
2021/05/28 05:29:34;;;;;;;5.78;1.80;;;9.70;75.20;;;;;;5093420;28;20028;-79
2021/05/28 05:32:00;;;;;;;2.70;1.80;;;9.80;74.90;;;;;;5093679;28;20032;-79
2021/05/28 05:34:25;;;;;;;2.47;1.60;;;9.90;74.80;;;;;;5093572;28;20081;-79
2021/05/28 05:36:51;;;;;;;5.63;2.28;;;10.10;74.50;;;;;;5093224;28;20051;-80
2021/05/28 05:39:17;;;;;;;6.22;1.95;;;10.20;74.10;;;;;;5093714;28;20028;-79
2021/05/28 05:41:42;;;;;;;3.75;1.77;;;10.30;73.90;;;;;;5093429;28;20040;-79
2021/05/28 05:44:08;;;;;;;6.55;1.80;;;10.40;73.60;;;;;;5093564;28;20353;-79
2021/05/28 05:46:34;;;;;;;3.50;1.75;;;10.60;73.40;;;;;;5093357;28;20081;-78
2021/05/28 05:49:00;;;;;;;4.50;1.90;;;10.70;73.20;;;;;;5093457;28;20023;-80
2021/05/28 05:51:26;;;;;;;2.15;1.73;;;10.90;73.70;;;;;;5093224;28;20028;-80
2021/05/28 05:53:52;;;;;;;7.47;2.13;;;11.10;72.20;;;;;;5093204;28;20508;-78
2021/05/28 05:56:17;;;;;;;2.13;1.55;;;11.20;71.50;;;;;;5093160;28;20127;-79
2021/05/28 05:58:43;;;;;;;2.22;1.40;;;11.30;71.70;;;;;;5092665;28;20035;-78
2021/05/28 06:01:09;;;;;;;4.97;1.60;;;11.40;70.50;;;;;;5093035;28;20115;-79
2021/05/28 06:03:35;;;;;;;2.15;1.52;;;11.40;70.10;;;;;;5093072;28;20496;-80
2021/05/28 06:06:00;;;;;;;2.88;1.60;;;11.60;70.00;;;;;;5092810;28;20036;-79
2021/05/28 06:08:26;;;;;;;3.70;1.52;;;11.70;69.70;;;;;;5093204;28;20016;-79
2021/05/28 06:10:52;;;;;;;4.35;2.67;;;11.70;69.30;;;;;;5092621;28;20020;-79
2021/05/28 06:13:18;;;;;;;7.03;3.05;;;11.80;68.90;;;;;;5092896;28;20020;-78
2021/05/28 06:15:44;;;;;;;3.30;2.35;;;11.90;68.40;;;;;;5092645;28;20028;-80
2021/05/28 06:18:09;;;;;;;5.85;2.30;;;11.60;68.40;;;;;;5092898;28;20028;-78
2021/05/28 06:20:35;;;;;;;3.70;2.33;;;11.80;68.50;;;;;;5092674;28;20028;-79
2021/05/28 06:23:00;;;;;;;4.18;2.38;;;11.80;68.20;;;;;;5092822;28;20050;-79
2021/05/28 06:25:27;;;;;;;3.72;2.75;;;12.00;68.10;;;;;;5092585;28;20024;-79
2021/05/28 06:27:52;;;;;;;6.38;2.60;;;12.10;68.00;;;;;;5091928;28;20077;-79
2021/05/28 06:30:18;;;;;;;6.97;2.30;;;12.10;67.70;;;;;;5096963;28;20383;-80
2021/05/28 06:32:44;;;;;;;2.63;1.80;;;12.10;67.80;;;;;;5096807;28;20032;-80
2021/05/28 06:35:10;;;;;;;2.63;1.73;;;12.00;68.30;;;;;;5096807;28;20016;-80
2021/05/28 06:37:36;;;;;;;4.28;2.20;;;12.10;68.90;;;;;;5096711;28;20031;-79
2021/05/28 06:40:04;;;;;;;5.78;2.53;;;12.00;69.10;;;;;;5096746;28;20496;-81
2021/05/28 06:42:29;;;;;;;3.45;2.30;;;12.00;69.20;;;;;;5095258;28;20066;-80
2021/05/28 06:44:55;;;;;;;4.07;2.20;;;12.00;69.80;;;;;;5096496;28;20024;-81
2021/05/28 06:47:20;;;;;;;4.68;2.88;;;12.00;69.90;;;;;;5097191;28;20040;-81
2021/05/28 06:49:46;;;;;;;3.85;2.03;;;12.00;70.00;;;;;;5096608;28;20430;-80
2021/05/28 06:52:12;;;;;;;5.97;2.63;;;12.20;69.10;;;;;;5095264;28;20019;-78
2021/05/28 06:54:38;;;;;;;11.05;2.90;;;12.30;68.50;;;;;;5096359;28;20111;-78
2021/05/28 06:57:03;;;;;;;3.10;2.05;;;12.30;68.40;;;;;;5096492;28;20026;-84
2021/05/28 06:59:29;;;;;;;5.88;2.63;;;12.30;68.20;;;;;;5096442;28;20054;-77
2021/05/28 07:01:55;;;;;;;2.53;1.83;;;12.50;68.40;;;;;;5095988;28;20523;-79
2021/05/28 07:04:21;;;;;;;3.28;2.45;;;12.70;67.90;;;;;;5096040;28;20405;-79
2021/05/28 07:06:47;;;;;;;5.45;2.70;;;12.80;66.30;;;;;;5095912;28;20024;-80
2021/05/28 07:09:12;;;;;;;4.07;2.55;;;12.60;65.30;;;;;;5095985;28;20024;-81
2021/05/28 07:11:38;;;;;;;5.43;2.60;;;12.70;66.00;;;;;;5094536;28;20032;-77
2021/05/28 07:14:04;;;;;;;5.38;2.60;;;12.60;66.30;;;;;;5095742;28;20080;-80
2021/05/28 07:16:30;;;;;;;7.88;3.00;;;12.60;66.20;;;;;;5095861;28;20380;-79
2021/05/28 07:18:56;;;;;;;4.40;2.63;;;12.70;67.00;;;;;;5094453;28;20043;-79
2021/05/28 07:21:26;;;;;;;3.30;2.85;;;12.90;66.40;;;;;;5095703;28;20444;-83
2021/05/28 07:23:51;;;;;;;3.83;2.53;;;12.90;65.60;;;;;;5095737;28;20027;-81
2021/05/28 07:26:17;;;;;;;4.95;2.83;;;12.90;66.00;;;;;;5095423;28;20024;-80
2021/05/28 07:28:43;;;;;;;4.35;2.88;;;13.10;67.20;;;;;;5095312;28;20099;-82
2021/05/28 07:31:09;;;;;;;4.55;3.15;;;13.20;66.50;;;;;;5094237;28;20414;-80
2021/05/28 07:33:34;;;;;;;4.80;2.95;;;13.40;65.80;;;;;;5095530;28;20480;-82
2021/05/28 07:36:00;;;;;;;6.13;2.85;;;13.20;65.80;;;;;;5095631;28;20028;-82
2021/05/28 07:38:26;;;;;;;17.33;3.90;;;13.20;67.10;;;;;;5094994;28;20357;-72
2021/05/28 07:40:52;;;;;;;9.70;3.55;;;13.50;71.40;;;;;;5094606;28;20031;-72
2021/05/28 07:43:18;;;;;;;6.57;3.20;;;13.80;70.10;;;;;;5095378;28;20024;-73
2021/05/28 07:45:49;;;;;;;7.75;3.55;;;14.10;66.70;;;;;;5095388;28;20042;-72
2021/05/28 07:48:14;;;;;;;4.85;3.00;;;14.10;65.60;;;;;;5095076;28;20039;-72
2021/05/28 07:50:47;;;;;;;10.20;2.88;;;14.30;66.70;;;;;;5095292;28;20056;-72
2021/05/28 07:53:14;;;;;;;3.85;2.67;;;14.60;65.50;;;;;;5095047;28;20024;-74
2021/05/28 07:55:40;;;;;;;7.18;2.38;;;14.80;64.40;;;;;;5095043;28;20050;-73
2021/05/28 07:58:06;;;;;;;5.18;3.58;;;15.00;63.30;;;;;;5094864;28;20024;-74
2021/05/28 08:00:32;;;;;;;5.18;3.13;;;15.30;62.00;;;;;;5094610;28;20160;-75
2021/05/28 08:02:59;;;;;;;5.68;3.10;;;15.40;62.10;;;;;;5093512;28;20039;-75
2021/05/28 08:05:24;;;;;;;7.10;3.90;;;15.60;60.90;;;;;;5094869;28;20524;-75
2021/05/28 08:07:50;;;;;;;5.88;4.50;;;15.80;60.30;;;;;;5094824;28;20027;-74
2021/05/28 08:10:15;;;;;;;4.80;3.30;;;15.80;60.30;;;;;;5095062;28;20491;-75
2021/05/28 08:12:41;;;;;;;7.68;4.53;;;15.80;61.10;;;;;;5095013;28;20016;-75
2021/05/28 08:15:08;;;;;;;5.18;4.05;;;15.70;60.90;;;;;;5094870;28;20028;-75
2021/05/28 08:17:33;;;;;;;4.40;3.30;;;15.80;61.70;;;;;;5094585;28;20024;-75
2021/05/28 08:19:59;;;;;;;9.88;4.68;;;16.00;61.30;;;;;;5094669;28;20023;-74
2021/05/28 08:22:24;;;;;;;6.05;3.83;;;16.30;60.80;;;;;;5094302;28;20097;-74
2021/05/28 08:24:50;;;;;;;7.38;4.57;;;16.50;60.20;;;;;;5094284;28;20016;-74
2021/05/28 08:27:17;;;;;;;6.85;4.40;;;16.40;58.70;;;;;;5094256;28;20028;-76
2021/05/28 08:29:43;;;;;;;9.05;4.20;;;16.40;59.20;;;;;;5094364;28;20089;-75
2021/05/28 08:32:09;;;;;;;5.63;4.18;;;16.20;58.60;;;;;;5094879;28;20374;-75
2021/05/28 08:34:35;;;;;;;4.68;3.95;;;16.30;59.00;;;;;;5094258;28;20032;-75
2021/05/28 08:37:00;;;;;;;5.85;4.57;;;16.40;58.30;;;;;;5094156;28;20060;-74
2021/05/28 08:39:26;;;;;;;7.15;5.47;;;16.40;57.00;;;;;;5094354;28;20020;-75
2021/05/28 08:41:53;;;;;;;8.82;5.25;;;16.40;57.50;;;;;;5095440;28;20054;-75
2021/05/28 08:44:24;;;;;;;6.03;4.07;;;16.30;56.80;;;;;;5094873;28;20024;-76
2021/05/28 08:46:53;;;;;;;6.25;3.80;;;16.30;57.00;;;;;;5094375;28;20085;-79
2021/05/28 08:49:20;;;;;;;5.43;3.00;;;16.10;56.70;;;;;;5094679;28;20077;-75
2021/05/28 08:51:45;;;;;;;4.65;3.22;;;16.40;57.30;;;;;;5096371;28;20032;-79
2021/05/28 08:54:11;;;;;;;5.95;4.40;;;16.80;56.90;;;;;;5104732;28;20048;-84
2021/05/28 08:56:36;;;;;;;5.88;3.65;;;16.90;55.80;;;;;;5104723;28;20035;-82
2021/05/28 08:59:06;;;;;;;5.20;3.40;;;16.80;56.70;;;;;;5107794;28;20024;-82
2021/05/28 09:01:32;;;;;;;5.68;3.45;;;16.90;56.50;;;;;;5108686;28;20047;-84
2021/05/28 09:04:00;;;;;;;6.20;3.70;;;16.80;56.60;;;;;;5102973;28;20031;-81
2021/05/28 09:06:40;;;;;;;6.03;2.78;;;16.80;55.40;;;;;;5095441;28;20024;-82
2021/05/28 09:09:17;;;;;;;7.85;3.25;;;16.80;55.50;;;;;;5096292;28;20077;-81
2021/05/28 09:12:03;;;;;;;3.50;2.95;;;16.90;54.80;;;;;;5094375;28;20027;-80
2021/05/28 09:14:38;;;;;;;5.13;3.58;;;17.10;55.10;;;;;;5094374;28;20020;-81
2021/05/28 09:17:06;;;;;;;5.97;2.60;;;17.50;54.20;;;;;;5094921;28;20024;-80
2021/05/28 09:19:34;;;;;;;3.97;3.00;;;17.80;53.50;;;;;;5095971;28;20024;-81
2021/05/28 09:22:04;;;;;;;4.40;3.92;;;18.00;52.90;;;;;;5109707;28;20055;-80
2021/05/28 09:24:34;;;;;;;3.53;2.67;;;17.80;49.80;;;;;;5093762;28;20023;-81
2021/05/28 09:27:26;;;;;;;4.80;2.67;;;17.90;51.30;;;;;;5093635;28;20027;-81
2021/05/28 09:30:13;;;;;;;4.47;2.97;;;18.10;51.80;;;;;;5094849;28;20028;-84
2021/05/28 09:32:44;;;;;;;3.40;2.55;;;18.30;50.60;;;;;;5106198;28;20092;-85
2021/05/28 09:35:12;;;;;;;2.25;1.48;;;18.30;50.30;;;;;;5111262;28;20020;-82
2021/05/28 09:37:42;;;;;;;6.15;2.47;;;18.50;49.30;;;;;;5109840;28;20020;-85
2021/05/28 09:40:18;;;;;;;4.97;2.63;;;18.70;48.60;;;;;;5107428;28;20028;-81
2021/05/28 09:42:54;;;;;;;6.20;2.80;;;18.90;48.60;;;;;;5096530;28;20050;-86
2021/05/28 09:45:35;;;;;;;6.07;3.20;;;18.90;47.10;;;;;;5093664;28;20048;-87
2021/05/28 09:48:13;;;;;;;6.22;2.28;;;18.60;48.00;;;;;;5093944;28;20064;-88
2021/05/28 09:50:48;;;;;;;3.38;2.70;;;18.60;48.20;;;;;;5093651;28;20024;-86
2021/05/28 09:53:39;;;;;;;3.92;2.20;;;18.30;48.70;;;;;;5094107;28;20020;-87
2021/05/28 09:56:40;;;;;;;5.25;2.80;;;18.50;48.00;;;;;;5093916;28;20028;-85
2021/05/28 09:59:07;;;;;;;5.65;2.15;;;18.60;47.30;;;;;;5051599;28;20124;-87
2021/05/28 10:01:38;;;;;;;6.25;2.40;;;18.90;48.40;;;;;;5085832;28;20055;-86
2021/05/28 10:04:06;;;;;;;3.17;2.33;;;18.60;48.20;;;;;;5093645;28;20094;-85
2021/05/28 10:06:37;;;;;;;5.45;3.50;;;18.80;48.20;;;;;;5093978;28;20066;-82
2021/05/28 10:09:11;;;;;;;7.15;3.75;;;18.50;47.40;;;;;;5094377;28;20036;-87
2021/05/28 10:11:38;;;;;;;5.05;2.55;;;18.00;48.60;;;;;;5094108;28;20027;-88
2021/05/28 10:14:06;;;;;;;6.80;3.50;;;18.00;49.80;;;;;;5092865;28;20357;-86
2021/05/28 10:16:32;;;;;;;2.72;2.20;;;18.20;48.90;;;;;;5094067;28;20020;-83
2021/05/28 10:18:58;;;;;;;3.35;2.40;;;18.40;49.00;;;;;;5094001;28;20577;-87
2021/05/28 10:21:25;;;;;;;3.28;2.22;;;18.80;48.10;;;;;;5093586;28;20035;-86
2021/05/28 10:23:52;;;;;;;2.80;1.88;;;19.20;46.80;;;;;;5093819;28;20107;-85
2021/05/28 10:26:25;;;;;;;2.60;2.20;;;19.50;45.70;;;;;;5093187;28;20024;-86
2021/05/28 10:28:51;;;;;;;3.67;2.95;;;20.00;44.10;;;;;;5093005;28;20031;-86
2021/05/28 10:31:17;;;;;;;6.70;3.20;;;20.20;42.70;;;;;;5094804;28;20016;-86
2021/05/28 10:33:53;;;;;;;7.88;3.10;;;19.50;42.40;;;;;;5094728;28;20016;-86
2021/05/28 10:36:39;;;;;;;5.38;3.15;;;19.20;43.70;;;;;;5094526;28;20023;-85
2021/05/28 10:39:09;;;;;;;;;;;19.10;43.30;;;;;;5093933;28;20024;-87
2021/05/28 10:41:36;;;;;;;4.13;2.30;;;19.30;43.80;;;;;;5093467;28;19912;-82
2021/05/28 10:44:14;;;;;;;4.75;2.45;;;19.50;43.50;;;;;;5092357;28;20083;-87
2021/05/28 10:47:19;;;;;;;3.67;1.70;;;19.50;42.40;;;;;;5092408;28;20404;-84
2021/05/28 10:49:50;;;;;;;2.53;2.20;;;19.40;42.80;;;;;;5093380;28;20041;-85
2021/05/28 10:52:32;;;;;;;4.00;2.75;;;19.30;41.30;;;;;;5093558;28;20456;-86
2021/05/28 10:55:10;;;;;;;5.32;2.15;;;18.90;41.20;;;;;;5094533;28;20109;-87
2021/05/28 10:57:49;;;;;;;3.58;1.88;;;18.90;42.80;;;;;;5093740;28;20476;-85
2021/05/28 11:00:25;;;;;;;2.03;1.67;;;19.40;42.60;;;;;;5093040;28;20476;-87
2021/05/28 11:02:55;;;;;;;5.30;2.72;;;20.10;41.50;;;;;;5093166;28;20381;-87
2021/05/28 11:05:41;;;;;;;4.43;2.00;;;20.00;39.90;;;;;;5095321;28;20103;-87
2021/05/28 11:08:42;;;;;;;2.15;1.90;;;20.30;40.90;;;;;;5098177;28;20054;-86
2021/05/28 11:11:08;;;;;;;4.55;2.38;;;20.40;40.00;;;;;;5097421;28;20068;-87
2021/05/28 11:13:57;;;;;;;5.28;2.22;;;20.70;39.70;;;;;;5093685;28;20024;-86
2021/05/28 11:16:23;;;;;;;5.00;2.88;;;20.80;38.30;;;;;;5097552;28;20027;-86
2021/05/28 11:18:49;;;;;;;2.80;1.98;;;20.80;37.90;;;;;;5097228;28;20032;-85
2021/05/28 11:21:20;;;;;;;4.55;1.67;;;20.30;37.30;;;;;;5096348;28;20422;-77
2021/05/28 11:23:52;;;;;;;3.30;1.40;;;19.80;38.40;;;;;;5096078;28;20028;-81
2021/05/28 11:26:25;;;;;;;2.28;1.92;;;19.70;39.10;;;;;;5096063;28;20032;-77
2021/05/28 11:28:55;;;;;;;4.93;2.30;;;20.10;39.90;;;;;;5095664;28;20427;-73
2021/05/28 11:31:23;;;;;;;6.25;2.60;;;20.40;40.20;;;;;;5095662;28;20024;-74
2021/05/28 11:33:55;;;;;;;2.13;1.63;;;20.80;39.80;;;;;;5095052;28;20032;-72
2021/05/28 11:36:26;;;;;;;2.90;1.77;;;20.60;38.70;;;;;;5096031;28;20031;-81
2021/05/28 11:39:00;;;;;;;2.67;1.88;;;20.90;38.70;;;;;;5095627;28;20020;-73
2021/05/28 11:42:03;;;;;;;3.42;1.80;;;20.40;37.80;;;;;;5095618;28;20043;-77
2021/05/28 11:44:33;;;;;;;3.92;1.67;;;20.10;37.60;;;;;;5094136;28;20381;-74
2021/05/28 11:46:59;;;;;;;4.65;1.40;;;20.30;39.00;;;;;;5095149;28;20075;-74
2021/05/28 11:49:26;;;;;;;2.40;1.65;;;20.10;38.90;;;;;;5095389;28;20464;-74
2021/05/28 11:52:05;;;;;;;3.00;1.42;;;19.80;38.70;;;;;;5095475;28;20028;-87
2021/05/28 11:54:34;;;;;;;5.95;1.95;;;19.60;39.40;;;;;;5095920;28;20381;-75
2021/05/28 11:57:12;;;;;;;3.75;1.60;;;19.40;40.50;;;;;;5095984;28;20032;-73
2021/05/28 11:59:45;;;;;;;2.13;1.30;;;19.50;40.60;;;;;;5095733;28;20027;-83
2021/05/28 12:02:11;;;;;;;4.00;1.70;;;19.70;40.40;;;;;;5094949;28;20396;-84
2021/05/28 12:04:37;;;;;;;7.82;2.00;;;20.10;39.70;;;;;;5095043;28;20020;-80
2021/05/28 12:07:08;;;;;;;4.07;1.58;;;20.10;38.90;;;;;;5095508;28;20425;-86
2021/05/28 12:09:34;;;;;;;2.60;1.30;;;20.20;38.40;;;;;;5092985;28;20047;-74
2021/05/28 12:12:02;;;;;;;2.90;1.50;;;20.80;38.60;;;;;;5094061;28;20669;-76
2021/05/28 12:14:27;;;;;;;5.65;2.05;;;21.30;37.90;;;;;;5095309;28;20480;-78
2021/05/28 12:16:53;;;;;;;3.40;1.77;;;21.00;36.60;;;;;;5094301;28;20097;-72
2021/05/28 12:19:18;;;;;;;2.65;1.75;;;20.70;36.50;;;;;;5094576;28;20107;-72
2021/05/28 12:21:44;;;;;;;1.30;1.20;;;20.60;36.10;;;;;;5093275;28;20044;-73
2021/05/28 12:24:10;;;;;;;3.83;1.67;;;21.00;36.40;;;;;;5094913;28;20016;-72
2021/05/28 12:26:35;;;;;;;2.28;1.50;;;21.10;35.80;;;;;;5094188;28;20028;-73
2021/05/28 12:29:05;;;;;;;4.82;2.50;;;21.50;36.00;;;;;;5094477;28;20032;-78
2021/05/28 12:31:40;;;;;;;6.90;2.60;;;21.80;36.10;;;;;;5110223;28;20085;-78
2021/05/28 12:34:08;;;;;;;3.33;1.60;;;21.80;35.80;;;;;;5110385;28;20024;-76
2021/05/28 12:36:36;;;;;;;2.63;1.67;;;22.00;35.30;;;;;;5109987;28;20024;-77
2021/05/28 12:39:09;;;;;;;2.50;1.60;;;22.20;35.00;;;;;;5110008;28;20027;-78
2021/05/28 12:41:38;;;;;;;2.03;1.17;;;22.50;35.50;;;;;;5109758;28;20110;-77
2021/05/28 12:44:05;;;;;;;2.58;1.42;;;22.60;33.50;;;;;;5109886;28;20432;-77
2021/05/28 12:46:36;;;;;;;3.22;2.20;;;22.80;32.50;;;;;;5109060;28;20036;-78
2021/05/28 12:49:14;;;;;;;2.30;1.45;;;22.60;32.60;;;;;;5109978;28;20016;-78
2021/05/28 12:51:47;;;;;;;5.30;1.80;;;22.30;33.20;;;;;;5110168;28;20024;-80
2021/05/28 12:54:16;;;;;;;4.47;2.15;;;22.60;34.10;;;;;;5110454;28;20051;-77